createdAt,value
2022-11-05T00:00:28.392Z,97751.88
2022-11-05T00:03:11.070Z,97749.34
2022-11-05T00:05:53.832Z,97748.13
2022-11-05T00:08:38.924Z,97753.94
2022-11-05T00:11:12.595Z,97757.88
2022-11-05T00:13:58.219Z,97756.13
2022-11-05T00:16:40.707Z,97764.94
2022-11-05T00:19:11.046Z,97764.94
2022-11-05T00:21:54.557Z,97772.19
2022-11-05T00:24:40.462Z,97765.75
2022-11-05T00:27:11.877Z,97766.53
2022-11-05T00:29:41.908Z,97767.31
2022-11-05T00:32:12.449Z,97776.31
2022-11-05T00:34:42.512Z,97770.50
2022-11-05T00:37:12.544Z,97781.03
2022-11-05T00:39:45.124Z,97773.03
2022-11-05T00:42:27.667Z,97778.38
2022-11-05T00:45:03.799Z,97781.84
2022-11-05T00:47:48.054Z,97781.53
2022-11-05T00:50:19.281Z,97790.81
2022-11-05T00:53:00.362Z,97796.53
2022-11-05T00:55:38.256Z,97802.72
2022-11-05T00:58:11.528Z,97803.13
2022-11-05T01:00:44.244Z,97812.22
2022-11-05T01:03:18.013Z,97811.44
2022-11-05T01:05:51.000Z,97829.00
2022-11-05T01:08:24.244Z,97822.38
2022-11-05T01:10:59.683Z,97822.91
2022-11-05T01:13:32.711Z,97814.13
2022-11-05T01:16:10.201Z,97813.06
2022-11-05T01:18:41.282Z,97815.00
2022-11-05T01:21:17.023Z,97817.41
2022-11-05T01:23:47.469Z,97826.78
2022-11-05T01:26:20.123Z,97816.63
2022-11-05T01:28:54.268Z,97819.00
2022-11-05T01:31:25.132Z,97826.09
2022-11-05T01:33:55.547Z,97838.97
2022-11-05T01:36:25.599Z,97835.78
2022-11-05T01:38:55.649Z,97844.66
2022-11-05T01:41:28.323Z,97841.16
2022-11-05T01:44:00.538Z,97847.19
2022-11-05T01:46:38.756Z,97846.84
2022-11-05T01:49:20.639Z,97848.81
2022-11-05T01:51:51.471Z,97843.72
2022-11-05T01:54:26.542Z,97846.22
2022-11-05T01:57:06.618Z,97850.31
2022-11-05T01:59:43.215Z,97849.00
2022-11-05T02:02:13.859Z,97848.03
2022-11-05T02:04:51.028Z,97854.69
2022-11-05T02:07:21.794Z,97848.03
2022-11-05T02:10:00.038Z,97853.09
2022-11-05T02:12:35.227Z,97854.69
2022-11-05T02:15:05.371Z,97852.69
2022-11-05T02:17:53.410Z,97857.16
2022-11-05T02:20:41.278Z,97853.06
2022-11-05T02:23:57.499Z,97854.72
2022-11-05T02:27:23.664Z,97857.25
2022-11-05T02:30:15.103Z,97858.03
2022-11-05T02:33:11.686Z,97851.34
2022-11-05T02:36:07.080Z,97859.13
2022-11-05T02:38:58.884Z,97860.44
2022-11-05T02:41:38.351Z,97864.38
2022-11-05T02:44:25.304Z,97861.03
2022-11-05T02:47:08.032Z,97865.41
2022-11-05T02:49:58.329Z,97865.84
2022-11-05T02:52:38.860Z,97866.13
2022-11-05T02:55:19.231Z,97860.94
2022-11-05T02:57:51.173Z,97863.63
2022-11-05T03:00:46.840Z,97866.78
2022-11-05T03:03:31.859Z,97862.25
2022-11-05T03:06:50.352Z,97866.78
2022-11-05T03:10:06.188Z,97873.78
2022-11-05T03:12:50.048Z,97868.72
2022-11-05T03:15:37.861Z,97870.72
2022-11-05T03:18:17.597Z,97870.13
2022-11-05T03:20:54.208Z,97874.53
2022-11-05T03:23:34.142Z,97879.22
2022-11-05T03:26:12.660Z,97875.38
2022-11-05T03:28:49.358Z,97880.09
2022-11-05T03:31:22.233Z,97882.19
2022-11-05T03:33:55.993Z,97888.66
2022-11-05T03:36:31.930Z,97891.56
2022-11-05T03:39:10.419Z,97891.56
2022-11-05T03:41:45.074Z,97898.47
2022-11-05T03:44:21.187Z,97897.06
2022-11-05T03:46:53.514Z,97904.78
2022-11-05T03:49:31.457Z,97905.56
2022-11-05T03:52:10.116Z,97902.09
2022-11-05T03:54:43.367Z,97908.56
2022-11-05T03:57:21.986Z,97911.28
2022-11-05T03:59:54.186Z,97921.78
2022-11-05T04:02:28.687Z,97922.59
2022-11-05T04:04:58.880Z,97927.75
2022-11-05T04:07:41.409Z,97931.47
2022-11-05T04:10:26.820Z,97923.84
2022-11-05T04:13:09.709Z,97927.81
2022-11-05T04:15:52.314Z,97931.00
2022-11-05T04:18:22.336Z,97934.38
2022-11-05T04:21:04.900Z,97934.03
2022-11-05T04:23:47.783Z,97937.19
2022-11-05T04:26:23.384Z,97946.66
2022-11-05T04:29:07.993Z,97939.75
2022-11-05T04:31:38.110Z,97945.16
2022-11-05T04:34:08.503Z,97952.44
2022-11-05T04:36:38.494Z,97957.72
2022-11-05T04:39:08.542Z,97961.13
2022-11-05T04:41:41.619Z,97970.75
2022-11-05T04:44:11.754Z,97961.75
2022-11-05T04:46:41.815Z,97967.84
2022-11-05T04:49:11.905Z,97971.09
2022-11-05T04:51:41.929Z,97961.75
2022-11-05T04:54:11.907Z,97965.34
2022-11-05T04:56:44.993Z,97969.44
2022-11-05T04:59:14.976Z,97979.59
2022-11-05T05:01:45.011Z,97969.50
2022-11-05T05:04:15.050Z,97972.69
2022-11-05T05:06:45.546Z,97978.81
2022-11-05T05:09:15.593Z,97979.88
2022-11-05T05:11:48.209Z,97982.41
2022-11-05T05:14:18.170Z,97984.66
2022-11-05T05:16:48.117Z,97986.94
2022-11-05T05:19:18.107Z,97983.78
2022-11-05T05:21:45.519Z,97991.94
2022-11-05T05:24:18.760Z,97993.00
2022-11-05T05:26:53.894Z,97995.88
2022-11-05T05:29:24.009Z,98000.16
2022-11-05T05:31:54.558Z,97996.56
2022-11-05T05:34:24.540Z,98001.91
2022-11-05T05:36:54.532Z,97999.88
2022-11-05T05:39:24.713Z,97996.13
2022-11-05T05:41:57.531Z,98004.88
2022-11-05T05:44:27.636Z,98006.78
2022-11-05T05:46:57.717Z,98003.19
2022-11-05T05:49:27.808Z,98012.47
2022-11-05T05:51:57.876Z,98011.53
2022-11-05T05:54:32.639Z,98017.13
2022-11-05T05:57:07.028Z,98021.41
2022-11-05T05:59:37.010Z,98026.22
2022-11-05T06:02:07.251Z,98026.69
2022-11-05T06:04:37.336Z,98032.44
2022-11-05T06:07:07.295Z,98026.13
2022-11-05T06:09:37.290Z,98030.09
2022-11-05T06:12:10.447Z,98037.63
2022-11-05T06:14:40.464Z,98038.06
2022-11-05T06:17:10.780Z,98038.94
2022-11-05T06:19:40.759Z,98039.09
2022-11-05T06:22:10.764Z,98038.75
2022-11-05T06:24:40.815Z,98045.75
2022-11-05T06:27:13.349Z,98054.69
2022-11-05T06:29:43.361Z,98051.88
2022-11-05T06:32:13.488Z,98063.44
2022-11-05T06:34:43.493Z,98072.88
2022-11-05T06:37:14.157Z,98070.34
2022-11-05T06:39:44.190Z,98075.16
2022-11-05T06:42:18.708Z,98077.97
2022-11-05T06:44:49.644Z,98088.47
2022-11-05T06:47:19.847Z,98086.91
2022-11-05T06:49:50.148Z,98098.56
2022-11-05T06:52:21.154Z,98092.44
2022-11-05T06:54:51.345Z,98097.06
2022-11-05T06:57:23.936Z,98097.88
2022-11-05T06:59:59.941Z,98110.75
2022-11-05T07:02:31.484Z,98111.59
2022-11-05T07:05:01.682Z,98115.28
2022-11-05T07:07:31.702Z,98117.56
2022-11-05T07:10:01.743Z,98122.72
2022-11-05T07:12:34.391Z,98118.69
2022-11-05T07:15:04.536Z,98128.84
2022-11-05T07:17:35.483Z,98127.47
2022-11-05T07:20:06.042Z,98139.59
2022-11-05T07:22:36.120Z,98138.13
2022-11-05T07:25:07.847Z,98145.38
2022-11-05T07:27:43.793Z,98152.66
2022-11-05T07:30:14.675Z,98159.31
2022-11-05T07:32:45.042Z,98167.03
2022-11-05T07:35:15.071Z,98164.03
2022-11-05T07:37:46.485Z,98170.63
2022-11-05T07:40:19.250Z,98178.56
2022-11-05T07:42:55.148Z,98178.38
2022-11-05T07:45:26.421Z,98180.06
2022-11-05T07:48:00.483Z,98178.41
2022-11-05T07:50:33.779Z,98187.69
2022-11-05T07:53:05.860Z,98182.72
2022-11-05T07:55:36.809Z,98192.53
2022-11-05T07:58:09.761Z,98192.78
2022-11-05T08:00:40.342Z,98194.44
2022-11-05T08:03:14.984Z,98200.72
2022-11-05T08:05:48.909Z,98201.13
2022-11-05T08:08:21.675Z,98204.38
2022-11-05T08:10:51.724Z,98207.78
2022-11-05T08:13:24.291Z,98210.16
2022-11-05T08:15:54.521Z,98215.44
2022-11-05T08:18:31.239Z,98216.28
2022-11-05T08:21:03.628Z,98213.47
2022-11-05T08:23:35.538Z,98213.97
2022-11-05T08:26:06.903Z,98215.09
2022-11-05T08:28:39.490Z,98220.09
2022-11-05T08:31:09.564Z,98217.50
2022-11-05T08:33:39.586Z,98219.41
2022-11-05T08:36:10.317Z,98224.63
2022-11-05T08:38:40.321Z,98219.19
2022-11-05T08:41:10.500Z,98228.47
2022-11-05T08:43:43.064Z,98227.44
2022-11-05T08:46:13.060Z,98228.72
2022-11-05T08:48:43.097Z,98235.22
2022-11-05T08:51:13.019Z,98237.19
2022-11-05T08:53:43.012Z,98243.34
2022-11-05T08:56:13.031Z,98244.81
2022-11-05T08:58:45.807Z,98255.41
2022-11-05T09:01:15.922Z,98249.97
2022-11-05T09:03:46.053Z,98256.38
2022-11-05T09:06:15.993Z,98261.63
2022-11-05T09:08:46.107Z,98261.44
2022-11-05T09:11:16.603Z,98270.47
2022-11-05T09:13:49.223Z,98261.91
2022-11-05T09:16:24.737Z,98258.91
2022-11-05T09:18:56.296Z,98264.22
2022-11-05T09:21:26.249Z,98270.88
2022-11-05T09:23:56.281Z,98280.13
2022-11-05T09:26:27.213Z,98273.78
2022-11-05T09:29:00.236Z,98274.44
2022-11-05T09:31:30.433Z,98276.13
2022-11-05T09:34:00.778Z,98284.53
2022-11-05T09:36:30.831Z,98285.78
2022-11-05T09:39:01.006Z,98278.47
2022-11-05T09:41:37.213Z,98284.88
2022-11-05T09:44:18.479Z,98282.91
2022-11-05T09:46:54.240Z,98286.50
2022-11-05T09:49:35.410Z,98286.16
2022-11-05T09:52:06.192Z,98290.88
2022-11-05T09:54:36.219Z,98295.06
2022-11-05T09:57:10.538Z,98292.88
2022-11-05T09:59:49.165Z,98297.84
2022-11-05T10:02:25.046Z,98301.03
2022-11-05T10:05:04.882Z,98308.16
2022-11-05T10:07:47.865Z,98309.41
2022-11-05T10:10:41.258Z,98313.81
2022-11-05T10:13:24.619Z,98319.59
2022-11-05T10:16:07.577Z,98323.69
2022-11-05T10:18:42.257Z,98321.56
2022-11-05T10:21:37.691Z,98325.41
2022-11-05T10:24:17.335Z,98336.88
2022-11-05T10:26:51.541Z,98326.97
2022-11-05T10:29:30.580Z,98338.84
2022-11-05T10:32:08.309Z,98333.94
2022-11-05T10:34:42.187Z,98340.97
2022-11-05T10:37:13.054Z,98337.38
2022-11-05T10:39:43.153Z,98340.81
2022-11-05T10:42:38.676Z,98346.09
2022-11-05T10:45:24.554Z,98345.34
2022-11-05T10:48:30.575Z,98348.25
2022-11-05T10:51:00.794Z,98354.31
2022-11-05T10:53:35.337Z,98348.16
2022-11-05T10:56:05.846Z,98352.19
2022-11-05T10:58:42.140Z,98352.53
2022-11-05T11:01:15.265Z,98350.34
2022-11-05T11:03:51.643Z,98355.25
2022-11-05T11:06:29.832Z,98353.25
2022-11-05T11:09:03.403Z,98357.09
2022-11-05T11:11:39.154Z,98371.19
2022-11-05T11:14:22.744Z,98362.09
2022-11-05T11:16:57.389Z,98360.84
2022-11-05T11:19:34.547Z,98364.28
2022-11-05T11:22:23.695Z,98361.66
2022-11-05T11:24:56.544Z,98362.47
2022-11-05T11:27:31.969Z,98366.31
2022-11-05T11:30:06.363Z,98369.91
2022-11-05T11:32:40.746Z,98368.94
2022-11-05T11:35:26.695Z,98365.69
2022-11-05T11:38:02.175Z,98375.97
2022-11-05T11:40:37.310Z,98372.19
2022-11-05T11:43:18.239Z,98372.78
2022-11-05T11:45:52.415Z,98372.81
2022-11-05T11:48:28.229Z,98366.53
2022-11-05T11:51:01.915Z,98374.31
2022-11-05T11:53:37.792Z,98373.66
2022-11-05T11:56:19.419Z,98374.47
2022-11-05T11:58:53.227Z,98380.28
2022-11-05T12:02:15.602Z,98373.09
2022-11-05T12:05:13.824Z,98375.00
2022-11-05T12:07:54.593Z,98373.81
2022-11-05T12:10:45.909Z,98370.94
2022-11-05T12:14:04.904Z,98369.59
2022-11-05T12:17:23.610Z,98362.72
2022-11-05T12:20:31.027Z,98359.69
2022-11-05T12:23:37.535Z,98357.75
2022-11-05T12:26:21.738Z,98351.19
2022-11-05T12:29:18.744Z,98356.38
2022-11-05T12:32:11.414Z,98351.00
2022-11-05T12:35:00.067Z,98356.59
2022-11-05T12:37:40.156Z,98360.31
2022-11-05T12:40:38.376Z,98359.75
2022-11-05T12:43:26.375Z,98358.81
2022-11-05T12:46:06.823Z,98359.03
2022-11-05T12:49:20.930Z,98366.31
2022-11-05T12:52:25.854Z,98363.81
2022-11-05T12:55:08.333Z,98360.13
2022-11-05T12:57:45.835Z,98358.31
2022-11-05T13:00:22.597Z,98358.31
2022-11-05T13:03:00.597Z,98361.47
2022-11-05T13:05:40.358Z,98356.16
2022-11-05T13:08:14.742Z,98352.44
2022-11-05T13:10:52.691Z,98358.91
2022-11-05T13:13:34.627Z,98360.72
2022-11-05T13:16:16.706Z,98367.78
2022-11-05T13:18:52.303Z,98370.31
2022-11-05T13:21:29.102Z,98367.78
2022-11-05T13:24:08.632Z,98367.44
2022-11-05T13:26:48.990Z,98362.56
2022-11-05T13:29:28.763Z,98355.81
2022-11-05T13:32:06.928Z,98366.69
2022-11-05T13:34:37.853Z,98368.16
2022-11-05T13:37:38.996Z,98369.59
2022-11-05T13:40:16.044Z,98368.94
2022-11-05T13:43:14.610Z,98368.66
2022-11-05T13:46:06.749Z,98364.66
2022-11-05T13:49:07.961Z,98363.88
2022-11-05T13:51:56.813Z,98369.59
2022-11-05T13:55:16.662Z,98367.53
2022-11-05T13:58:31.015Z,98367.81
2022-11-05T14:01:19.442Z,98369.56
2022-11-05T14:03:51.620Z,98370.72
2022-11-05T14:06:29.973Z,98367.09
2022-11-05T14:09:05.110Z,98375.97
2022-11-05T14:11:40.398Z,98381.06
2022-11-05T14:14:21.528Z,98375.69
2022-11-05T14:16:57.916Z,98380.31
2022-11-05T14:19:37.334Z,98375.31
2022-11-05T14:22:40.275Z,98376.28
2022-11-05T14:25:57.749Z,98374.78
2022-11-05T14:28:47.635Z,98379.47
2022-11-05T14:32:07.068Z,98379.88
2022-11-05T14:34:50.355Z,98384.91
2022-11-05T14:37:29.550Z,98393.66
2022-11-05T14:40:03.737Z,98389.06
2022-11-05T14:42:34.532Z,98387.81
2022-11-05T14:45:23.700Z,98395.00
2022-11-05T14:47:58.863Z,98403.25
2022-11-05T14:50:41.770Z,98396.06
2022-11-05T14:53:33.324Z,98402.13
2022-11-05T14:56:09.678Z,98406.78
2022-11-05T14:58:41.443Z,98413.09
2022-11-05T15:01:51.982Z,98410.38
2022-11-05T15:04:31.244Z,98410.81
2022-11-05T15:07:36.419Z,98410.19
2022-11-05T15:10:14.652Z,98406.94
2022-11-05T15:12:50.318Z,98412.81
2022-11-05T15:15:27.697Z,98415.72
2022-11-05T15:18:08.919Z,98407.03
2022-11-05T15:20:46.920Z,98413.16
2022-11-05T15:23:24.343Z,98415.28
2022-11-05T15:26:05.575Z,98406.22
2022-11-05T15:28:41.415Z,98411.66
2022-11-05T15:31:32.011Z,98414.38
2022-11-05T15:34:28.928Z,98419.13
2022-11-05T15:37:02.201Z,98416.13
2022-11-05T15:39:43.154Z,98420.03
2022-11-05T15:42:18.300Z,98420.66
2022-11-05T15:44:51.075Z,98431.47
2022-11-05T15:47:26.208Z,98424.81
2022-11-05T15:49:59.947Z,98422.31
2022-11-05T15:52:37.136Z,98418.81
2022-11-05T15:55:23.806Z,98419.09
2022-11-05T15:57:59.729Z,98421.41
2022-11-05T16:00:31.826Z,98420.38
2022-11-05T16:03:07.039Z,98428.69
2022-11-05T16:05:45.036Z,98431.00
2022-11-05T16:08:29.094Z,98420.97
2022-11-05T16:11:04.128Z,98426.25
2022-11-05T16:13:41.182Z,98435.09
2022-11-05T16:16:36.022Z,98429.31
2022-11-05T16:19:40.961Z,98440.63
2022-11-05T16:22:11.563Z,98438.56
2022-11-05T16:24:41.633Z,98441.81
2022-11-05T16:27:20.313Z,98446.59
2022-11-05T16:29:54.538Z,98445.81
2022-11-05T16:32:31.358Z,98448.50
2022-11-05T16:35:05.378Z,98439.94
2022-11-05T16:37:49.149Z,98443.91
2022-11-05T16:40:24.628Z,98454.13
2022-11-05T16:42:57.845Z,98443.75
2022-11-05T16:45:28.339Z,98456.03
2022-11-05T16:47:58.333Z,98453.81
2022-11-05T16:50:34.407Z,98459.13
2022-11-05T16:53:04.412Z,98467.53
2022-11-05T16:55:35.972Z,98468.03
2022-11-05T16:58:16.975Z,98469.97
2022-11-05T17:00:47.090Z,98468.38
2022-11-05T17:03:17.221Z,98466.81
2022-11-05T17:05:47.504Z,98464.94
2022-11-05T17:08:17.549Z,98461.63
2022-11-05T17:10:47.673Z,98471.38
2022-11-05T17:13:22.561Z,98480.00
2022-11-05T17:15:54.334Z,98473.66
2022-11-05T17:18:24.684Z,98471.94
2022-11-05T17:20:57.791Z,98471.19
2022-11-05T17:23:29.972Z,98471.50
2022-11-05T17:26:09.832Z,98473.09
2022-11-05T17:28:43.470Z,98473.41
2022-11-05T17:31:17.339Z,98469.31
2022-11-05T17:33:47.478Z,98469.31
2022-11-05T17:36:18.836Z,98486.06
2022-11-05T17:38:48.874Z,98482.91
2022-11-05T17:41:22.121Z,98483.50
2022-11-05T17:44:00.377Z,98483.47
2022-11-05T17:46:30.691Z,98487.25
2022-11-05T17:49:00.912Z,98484.44
2022-11-05T17:51:32.792Z,98482.97
2022-11-05T17:54:02.855Z,98479.72
2022-11-05T17:56:36.264Z,98486.91
2022-11-05T17:59:10.564Z,98490.59
2022-11-05T18:01:43.346Z,98501.25
2022-11-05T18:04:13.675Z,98507.13
2022-11-05T18:06:44.865Z,98508.94
2022-11-05T18:09:15.953Z,98512.03
2022-11-05T18:11:46.439Z,98517.03
2022-11-05T18:14:23.859Z,98525.59
2022-11-05T18:16:55.432Z,98522.56
2022-11-05T18:19:25.575Z,98533.47
2022-11-05T18:21:55.836Z,98527.34
2022-11-05T18:24:25.985Z,98525.63
2022-11-05T18:26:56.020Z,98530.69
2022-11-05T18:29:28.775Z,98534.66
2022-11-05T18:31:58.985Z,98536.78
2022-11-05T18:34:29.001Z,98530.84
2022-11-05T18:37:01.773Z,98523.09
2022-11-05T18:39:31.966Z,98525.34
2022-11-05T18:42:01.967Z,98526.19
2022-11-05T18:44:39.141Z,98525.97
2022-11-05T18:47:09.819Z,98520.25
2022-11-05T18:49:39.942Z,98522.41
2022-11-05T18:52:09.967Z,98523.09
2022-11-05T18:54:40.008Z,98527.34
2022-11-05T18:57:10.311Z,98526.16
2022-11-05T18:59:46.979Z,98525.88
2022-11-05T19:02:18.305Z,98510.22
2022-11-05T19:05:22.158Z,98515.84
2022-11-05T19:07:41.231Z,98517.72
2022-11-05T19:10:12.428Z,98514.53
2022-11-05T19:12:42.538Z,98519.59
2022-11-05T19:15:15.447Z,98516.66
2022-11-05T19:17:45.726Z,98516.00
2022-11-05T19:20:16.146Z,98516.91
2022-11-05T19:22:46.164Z,98520.38
2022-11-05T19:25:16.297Z,98519.88
2022-11-05T19:27:47.271Z,98512.84
2022-11-05T19:30:20.199Z,98509.28
2022-11-05T19:32:50.192Z,98516.47
2022-11-05T19:35:20.546Z,98509.97
2022-11-05T19:37:53.501Z,98515.66
2022-11-05T19:40:24.193Z,98516.72
2022-11-05T19:42:54.225Z,98513.03
2022-11-05T19:45:44.100Z,98517.78
2022-11-05T19:48:19.472Z,98522.44
2022-11-05T19:50:50.208Z,98524.94
2022-11-05T19:53:20.241Z,98525.88
2022-11-05T19:55:50.255Z,98524.69
2022-11-05T19:58:20.468Z,98526.56
2022-11-05T20:00:53.115Z,98532.91
2022-11-05T20:03:23.244Z,98535.31
2022-11-05T20:05:53.317Z,98536.50
2022-11-05T20:08:23.625Z,98533.03
2022-11-05T20:10:57.330Z,98537.28
2022-11-05T20:13:27.486Z,98537.53
2022-11-05T20:16:01.588Z,98532.00
2022-11-05T20:18:31.803Z,98540.34
2022-11-05T20:21:07.770Z,98544.84
2022-11-05T20:23:38.788Z,98544.84
2022-11-05T20:26:10.505Z,98547.63
2022-11-05T20:28:42.739Z,98540.63
2022-11-05T20:31:18.535Z,98548.28
2022-11-05T20:33:49.572Z,98562.34
2022-11-05T20:36:22.644Z,98556.78
2022-11-05T20:38:55.278Z,98557.97
2022-11-05T20:41:25.831Z,98563.56
2022-11-05T20:43:56.594Z,98564.88
2022-11-05T20:46:30.017Z,98578.53
2022-11-05T20:49:00.027Z,98570.03
2022-11-05T20:51:30.099Z,98567.66
2022-11-05T20:54:02.396Z,98572.69
2022-11-05T20:56:35.415Z,98563.81
2022-11-05T20:59:06.675Z,98560.50
2022-11-05T21:01:39.821Z,98561.28
2022-11-05T21:04:10.047Z,98559.44
2022-11-05T21:06:40.092Z,98558.38
2022-11-05T21:09:10.097Z,98563.69
2022-11-05T21:11:52.350Z,98565.53
2022-11-05T21:14:22.455Z,98567.41
2022-11-05T21:16:54.991Z,98558.78
2022-11-05T21:19:25.107Z,98568.47
2022-11-05T21:21:55.588Z,98562.09
2022-11-05T21:24:25.777Z,98559.28
2022-11-05T21:26:56.333Z,98564.19
2022-11-05T21:29:26.589Z,98558.88
2022-11-05T21:31:59.182Z,98559.94
2022-11-05T21:34:29.745Z,98555.19
2022-11-05T21:36:59.721Z,98555.47
2022-11-05T21:39:30.401Z,98562.88
2022-11-05T21:42:00.380Z,98559.69
2022-11-05T21:44:30.559Z,98560.75
2022-11-05T21:47:04.570Z,98559.72
2022-11-05T21:49:37.043Z,98563.94
2022-11-05T21:52:20.252Z,98553.47
2022-11-05T21:55:03.007Z,98553.72
2022-11-05T21:57:45.532Z,98556.91
2022-11-05T22:00:16.666Z,98552.66
2022-11-05T22:02:49.444Z,98541.66
2022-11-05T22:05:19.844Z,98554.66
2022-11-05T22:07:49.919Z,98553.47
2022-11-05T22:10:20.011Z,98553.59
2022-11-05T22:12:50.234Z,98553.19
2022-11-05T22:15:20.503Z,98544.31
2022-11-05T22:17:55.248Z,98548.81
2022-11-05T22:20:25.684Z,98542.47
2022-11-05T22:22:57.127Z,98549.63
2022-11-05T22:25:27.150Z,98548.03
2022-11-05T22:27:57.148Z,98552.53
2022-11-05T22:30:27.210Z,98546.41
2022-11-05T22:32:59.749Z,98546.13
2022-11-05T22:35:29.915Z,98548.94
2022-11-05T22:38:00.078Z,98542.28
2022-11-05T22:40:30.148Z,98549.59
2022-11-05T22:43:00.519Z,98549.34
2022-11-05T22:45:30.537Z,98541.66
2022-11-05T22:48:06.724Z,98541.66
2022-11-05T22:50:37.069Z,98544.00
2022-11-05T22:53:07.152Z,98535.78
2022-11-05T22:55:42.121Z,98535.81
2022-11-05T22:58:12.542Z,98542.44
2022-11-05T23:00:43.049Z,98539.03
2022-11-05T23:03:15.681Z,98539.66
2022-11-05T23:05:45.654Z,98535.28
2022-11-05T23:08:28.125Z,98537.41
2022-11-05T23:11:10.647Z,98526.53
2022-11-05T23:13:40.707Z,98522.97
2022-11-05T23:16:23.644Z,98522.81
2022-11-05T23:19:08.774Z,98524.94
2022-11-05T23:21:54.015Z,98512.63
2022-11-05T23:24:24.002Z,98514.34
2022-11-05T23:26:54.092Z,98519.75
2022-11-05T23:29:26.976Z,98517.63
2022-11-05T23:32:09.742Z,98519.09
2022-11-05T23:34:42.745Z,98521.47
2022-11-05T23:37:25.373Z,98523.56
2022-11-05T23:39:55.379Z,98516.13
2022-11-05T23:42:38.205Z,98514.25
2022-11-05T23:45:22.795Z,98517.09
2022-11-05T23:48:05.502Z,98514.97
2022-11-05T23:50:40.028Z,98512.59
2022-11-05T23:53:10.931Z,98502.91
2022-11-05T23:55:41.322Z,98497.72
2022-11-05T23:58:12.968Z,98503.00
